Time;durP1;ratioP1;P1;durP2;ratioP2;P2;SDS_P1;SDS_P2;PMS_P1;PMS_P2;Temp;Humidity;BMP_temperature;BMP_pressure;BME280_temperature;BME280_humidity;BME280_pressure;Samples;Min_cycle;Max_cycle;Signal;HPM_P1;HPM_P2
2022/04/11 00:01:44;;;;;;;;;;;12.10;53.10;;;;;;7383967;19;19947;-83
2022/04/11 00:04:15;;;;;;;;;;;12.10;53.40;;;;;;7383033;19;19930;-83
2022/04/11 00:06:44;;;;;;;;;;;12.10;53.50;;;;;;7402864;19;20005;-81
2022/04/11 00:09:12;;;;;;;;;;;12.10;53.90;;;;;;7380162;19;20548;-83
2022/04/11 00:11:41;;;;;;;;;;;12.10;53.90;;;;;;7378713;19;19922;-83
2022/04/11 00:14:09;;;;;;;;;;;12.10;53.90;;;;;;7382518;19;19922;-83
2022/04/11 00:16:38;;;;;;;;;;;12.00;53.70;;;;;;7380204;19;19947;-83
2022/04/11 00:19:08;;;;;;;;;;;12.00;53.80;;;;;;7381949;19;19923;-82
2022/04/11 00:21:39;;;;;;;;;;;12.00;53.80;;;;;;7402663;19;19922;-82
2022/04/11 00:24:08;;;;;;;;;;;12.00;53.90;;;;;;7376289;19;19919;-82
2022/04/11 00:26:37;;;;;;;;;;;12.00;54.00;;;;;;7379504;19;19923;-83
2022/04/11 00:29:05;;;;;;;;;;;11.90;53.70;;;;;;7377034;19;19934;-82
2022/04/11 00:31:34;;;;;;;;;;;11.90;53.90;;;;;;7378115;19;20699;-82
2022/04/11 00:34:02;;;;;;;;;;;11.80;53.90;;;;;;7381358;19;19953;-83
2022/04/11 00:36:31;;;;;;;;;;;11.80;54.30;;;;;;7402882;19;19927;-84
2022/04/11 00:39:02;;;;;;;;;;;11.80;54.20;;;;;;7377783;19;19927;-82
2022/04/11 00:41:31;;;;;;;;;;;11.70;54.20;;;;;;7378406;19;19943;-82
2022/04/11 00:43:59;;;;;;;;;;;11.70;54.20;;;;;;7376582;19;19919;-83
2022/04/11 00:46:28;;;;;;;;;;;11.70;54.40;;;;;;7379869;19;19919;-83
2022/04/11 00:48:56;;;;;;;;;;;11.70;54.30;;;;;;7377438;19;19922;-83
2022/04/11 00:51:26;;;;;;;;;;;11.70;54.40;;;;;;7401734;19;19929;-83
2022/04/11 00:53:55;;;;;;;;;;;11.70;54.50;;;;;;7378074;19;20403;-83
2022/04/11 00:56:27;;;;;;;;;;;11.70;54.50;;;;;;7379391;19;19919;-83
2022/04/11 00:58:55;;;;;;;;;;;11.60;54.30;;;;;;7377561;19;19918;-84
2022/04/11 01:01:24;;;;;;;;;;;11.70;54.30;;;;;;7379131;19;19939;-84
2022/04/11 01:03:53;;;;;;;;;;;11.60;55.10;;;;;;7377723;19;19921;-83
2022/04/11 01:06:21;;;;;;;;;;;11.60;54.30;;;;;;7401490;19;20253;-83
2022/04/11 01:08:50;;;;;;;;;;;11.60;54.30;;;;;;7377504;19;20002;-82
2022/04/11 01:11:18;;;;;;;;;;;11.60;54.40;;;;;;7375052;19;19990;-83
2022/04/11 01:13:49;;;;;;;;;;;11.50;54.60;;;;;;7377828;19;19922;-84
2022/04/11 01:16:28;;;;;;;;;;;11.50;54.60;;;;;;7379536;19;19927;-84
2022/04/11 01:18:57;;;;;;;;;;;11.50;54.50;;;;;;7377263;19;19922;-83
2022/04/11 01:21:33;;;;;;;;;;;11.50;54.60;;;;;;7400640;19;19942;-83
2022/04/11 01:24:01;;;;;;;;;;;11.50;54.60;;;;;;7376843;19;19947;-83
2022/04/11 01:26:31;;;;;;;;;;;11.50;54.60;;;;;;7376411;19;19940;-83
2022/04/11 01:29:00;;;;;;;;;;;11.50;54.70;;;;;;7377549;19;19918;-83
2022/04/11 01:31:28;;;;;;;;;;;11.50;54.70;;;;;;7377079;19;19921;-83
2022/04/11 01:33:57;;;;;;;;;;;11.50;54.60;;;;;;7378250;19;19926;-83
2022/04/11 01:36:25;;;;;;;;;;;11.40;54.70;;;;;;7399502;19;19911;-84
2022/04/11 01:38:56;;;;;;;;;;;11.40;54.70;;;;;;7377128;19;19918;-84
2022/04/11 01:41:25;;;;;;;;;;;11.40;54.60;;;;;;7380459;19;19927;-83
2022/04/11 01:43:53;;;;;;;;;;;11.40;54.60;;;;;;7382840;19;19933;-84
2022/04/11 01:46:22;;;;;;;;;;;11.40;54.70;;;;;;7383267;19;19919;-83
2022/04/11 01:48:51;;;;;;;;;;;11.40;54.60;;;;;;7399219;19;19923;-83
2022/04/11 01:51:19;;;;;;;;;;;11.40;54.60;;;;;;7405200;19;19927;-83
2022/04/11 01:53:48;;;;;;;;;;;11.40;54.70;;;;;;7383355;19;19931;-83
2022/04/11 01:56:20;;;;;;;;;;;11.40;54.70;;;;;;7385764;19;19922;-82
2022/04/11 01:58:48;;;;;;;;;;;11.40;54.70;;;;;;7386160;19;19922;-84
2022/04/11 02:01:18;;;;;;;;;;;11.40;54.50;;;;;;7387611;19;19915;-82
2022/04/11 02:03:47;;;;;;;;;;;11.40;54.50;;;;;;7406886;19;19926;-83
2022/04/11 02:06:16;;;;;;;;;;;11.40;54.60;;;;;;7390080;19;19948;-83
2022/04/11 02:08:44;;;;;;;;;;;11.40;54.60;;;;;;7387822;19;19919;-82
2022/04/11 02:11:14;;;;;;;;;;;11.40;54.50;;;;;;7387734;19;19994;-84
2022/04/11 02:13:45;;;;;;;;;;;11.30;54.60;;;;;;7387495;19;19943;-82
2022/04/11 02:16:14;;;;;;;;;;;11.30;54.60;;;;;;7381776;19;19928;-82
2022/04/11 02:18:43;;;;;;;;;;;11.30;54.70;;;;;;7405401;19;19929;-83
2022/04/11 02:21:11;;;;;;;;;;;11.30;54.80;;;;;;7382894;19;19931;-83
2022/04/11 02:23:40;;;;;;;;;;;11.40;54.80;;;;;;7382050;19;19951;-83
2022/04/11 02:26:08;;;;;;;;;;;11.40;55.20;;;;;;7384426;19;19922;-83
2022/04/11 02:28:37;;;;;;;;;;;11.40;54.20;;;;;;7385449;19;19931;-83
2022/04/11 02:31:09;;;;;;;;;;;11.40;53.90;;;;;;7385606;19;19943;-83
2022/04/11 02:33:37;;;;;;;;;;;11.40;53.60;;;;;;7407985;19;19923;-83
2022/04/11 02:36:06;;;;;;;;;;;11.50;53.50;;;;;;7388534;19;19925;-83
2022/04/11 02:38:35;;;;;;;;;;;11.40;53.10;;;;;;7386897;19;19918;-82
2022/04/11 02:41:04;;;;;;;;;;;11.40;52.90;;;;;;7401079;19;19915;-82
2022/04/11 02:43:32;;;;;;;;;;;11.40;53.20;;;;;;7413717;19;20022;-82
2022/04/11 02:46:01;;;;;;;;;;;11.40;53.10;;;;;;7407536;19;19914;-82
2022/04/11 02:48:32;;;;;;;;;;;11.40;53.00;;;;;;7410845;19;19931;-83
2022/04/11 02:51:00;;;;;;;;;;;11.50;53.30;;;;;;7384418;19;19943;-82
2022/04/11 02:53:29;;;;;;;;;;;11.40;52.90;;;;;;7385372;19;19998;-82
2022/04/11 02:55:57;;;;;;;;;;;11.40;52.70;;;;;;7383367;19;19947;-82
2022/04/11 02:58:26;;;;;;;;;;;11.40;52.80;;;;;;7403082;19;19923;-82
2022/04/11 03:00:55;;;;;;;;;;;11.40;52.60;;;;;;7408818;19;19927;-83
2022/04/11 03:03:23;;;;;;;;;;;11.40;52.70;;;;;;7419976;19;20264;-83
2022/04/11 03:05:54;;;;;;;;;;;11.40;52.70;;;;;;7389037;19;19914;-83
2022/04/11 03:08:23;;;;;;;;;;;11.40;52.80;;;;;;7399558;19;19919;-81
2022/04/11 03:10:51;;;;;;;;;;;11.40;52.70;;;;;;7413447;19;19906;-83
2022/04/11 03:13:20;;;;;;;;;;;11.40;52.40;;;;;;7411381;19;19911;-83
2022/04/11 03:15:48;;;;;;;;;;;11.40;52.50;;;;;;7433493;19;19939;-83
2022/04/11 03:18:17;;;;;;;;;;;11.40;52.50;;;;;;7415116;19;19915;-82
2022/04/11 03:20:47;;;;;;;;;;;11.40;52.30;;;;;;7410344;19;19943;-83
2022/04/11 03:23:19;;;;;;;;;;;11.40;52.30;;;;;;7410101;19;19923;-82
2022/04/11 03:25:48;;;;;;;;;;;11.40;52.40;;;;;;7395972;19;19919;-82
2022/04/11 03:28:17;;;;;;;;;;;11.40;52.50;;;;;;7389996;19;19919;-82
2022/04/11 03:30:45;;;;;;;;;;;11.40;52.50;;;;;;7409677;19;19947;-82
2022/04/11 03:33:14;;;;;;;;;;;11.40;52.50;;;;;;7387109;19;19923;-82
2022/04/11 03:35:43;;;;;;;;;;;11.40;52.50;;;;;;7384855;19;19918;-82
2022/04/11 03:38:11;;;;;;;;;;;11.40;52.80;;;;;;7385635;19;19948;-83
2022/04/11 03:40:43;;;;;;;;;;;11.40;53.10;;;;;;7384544;19;19959;-81
2022/04/11 03:43:12;;;;;;;;;;;11.40;53.00;;;;;;7392173;19;19916;-82
2022/04/11 03:45:41;;;;;;;;;;;11.30;53.20;;;;;;7426150;19;19926;-82
2022/04/11 03:48:10;;;;;;;;;;;11.30;53.90;;;;;;7408790;19;19918;-82
2022/04/11 03:50:39;;;;;;;;;;;11.30;53.50;;;;;;7382202;19;19951;-83
2022/04/11 03:53:07;;;;;;;;;;;11.20;54.10;;;;;;7382219;19;19936;-83
2022/04/11 03:55:36;;;;;;;;;;;11.20;53.40;;;;;;7382888;19;19919;-82
2022/04/11 03:58:08;;;;;;;;;;;11.20;53.30;;;;;;7382643;19;19919;-82
2022/04/11 04:00:36;;;;;;;;;;;11.20;53.50;;;;;;7404484;19;19915;-82
2022/04/11 04:03:08;;;;;;;;;;;11.10;53.40;;;;;;7382006;19;20256;-83
2022/04/11 04:05:41;;;;;;;;;;;11.10;53.30;;;;;;7381274;19;19925;-82
2022/04/11 04:08:10;;;;;;;;;;;11.10;53.50;;;;;;7380780;19;19928;-83
2022/04/11 04:10:40;;;;;;;;;;;11.10;53.40;;;;;;7382041;19;19994;-82
2022/04/11 04:13:12;;;;;;;;;;;11.10;53.20;;;;;;7378791;19;19922;-83
2022/04/11 04:15:40;;;;;;;;;;;11.10;53.00;;;;;;7400574;19;19930;-82
2022/04/11 04:18:10;;;;;;;;;;;11.10;52.90;;;;;;7380232;19;19958;-83
2022/04/11 04:20:39;;;;;;;;;;;11.10;52.90;;;;;;7380781;19;19934;-82
2022/04/11 04:23:08;;;;;;;;;;;11.10;52.90;;;;;;7381539;19;19915;-82
2022/04/11 04:25:37;;;;;;;;;;;11.10;52.90;;;;;;7380485;19;19929;-83
2022/04/11 04:28:06;;;;;;;;;;;11.10;53.20;;;;;;7377437;19;19982;-83
2022/04/11 04:30:38;;;;;;;;;;;11.10;53.20;;;;;;7401094;19;19935;-82
2022/04/11 04:33:06;;;;;;;;;;;11.10;53.20;;;;;;7377595;19;19918;-83
2022/04/11 04:35:35;;;;;;;;;;;11.10;53.20;;;;;;7378670;19;19935;-82
2022/04/11 04:38:03;;;;;;;;;;;11.10;52.90;;;;;;7378641;19;19943;-82
2022/04/11 04:40:32;;;;;;;;;;;11.00;52.90;;;;;;7380143;19;19922;-81
2022/04/11 04:43:01;;;;;;;;;;;11.10;52.80;;;;;;7377575;19;20418;-82
2022/04/11 04:45:29;;;;;;;;;;;11.10;52.70;;;;;;7399157;19;19922;-82
2022/04/11 04:48:01;;;;;;;;;;;11.10;52.50;;;;;;7377285;19;19943;-82
2022/04/11 04:50:29;;;;;;;;;;;11.00;52.70;;;;;;7377259;19;19918;-82
2022/04/11 04:52:58;;;;;;;;;;;11.10;52.90;;;;;;7378174;19;19918;-83
2022/04/11 04:55:27;;;;;;;;;;;11.10;52.90;;;;;;7378066;19;19923;-82
2022/04/11 04:57:58;;;;;;;;;;;11.00;52.90;;;;;;7377568;19;20361;-81
2022/04/11 05:00:27;;;;;;;;;;;11.00;53.10;;;;;;7400062;19;19923;-83
2022/04/11 05:02:56;;;;;;;;;;;11.00;53.10;;;;;;7379652;19;19918;-82
2022/04/11 05:05:27;;;;;;;;;;;11.00;53.50;;;;;;7378938;19;19971;-82
2022/04/11 05:07:55;;;;;;;;;;;11.00;53.60;;;;;;7377678;19;19978;-83
2022/04/11 05:10:24;;;;;;;;;;;10.90;53.70;;;;;;7379728;19;20371;-83
2022/04/11 05:12:53;;;;;;;;;;;10.90;53.80;;;;;;7377158;19;19935;-82
2022/04/11 05:15:21;;;;;;;;;;;10.90;54.00;;;;;;7400587;19;19922;-82
2022/04/11 05:17:50;;;;;;;;;;;10.90;54.00;;;;;;7384958;19;19930;-83
2022/04/11 05:20:18;;;;;;;;;;;10.80;54.10;;;;;;7387295;19;19927;-83
2022/04/11 05:22:50;;;;;;;;;;;10.80;54.00;;;;;;7385474;19;19931;-83
2022/04/11 05:25:19;;;;;;;;;;;10.80;54.30;;;;;;7385632;19;19934;-83
2022/04/11 05:27:47;;;;;;;;;;;10.70;54.30;;;;;;7408081;19;19930;-83
2022/04/11 05:30:16;;;;;;;;;;;10.70;54.20;;;;;;7387435;19;19951;-83
2022/04/11 05:32:45;;;;;;;;;;;10.70;53.90;;;;;;7386952;19;19918;-83
2022/04/11 05:35:13;;;;;;;;;;;10.70;53.80;;;;;;7386389;19;19919;-82
2022/04/11 05:37:42;;;;;;;;;;;10.70;53.50;;;;;;7386088;19;19922;-83
2022/04/11 05:40:14;;;;;;;;;;;10.70;53.30;;;;;;7383768;19;19924;-82
2022/04/11 05:42:43;;;;;;;;;;;10.70;53.30;;;;;;7405955;19;19931;-82
2022/04/11 05:45:13;;;;;;;;;;;10.70;53.40;;;;;;7382308;19;20627;-83
2022/04/11 05:48:06;;;;;;;;;;;10.80;53.30;;;;;;7382462;19;19936;-84
2022/04/11 05:50:35;;;;;;;;;;;10.90;53.20;;;;;;7382683;19;19919;-83
2022/04/11 05:53:04;;;;;;;;;;;10.90;52.80;;;;;;7383308;19;19915;-81
2022/04/11 05:55:36;;;;;;;;;;;10.90;52.60;;;;;;7383973;19;19939;-81
2022/04/11 05:58:04;;;;;;;;;;;11.00;52.60;;;;;;7381473;19;19919;-81
2022/04/11 06:00:33;;;;;;;;;;;11.10;52.70;;;;;;7406892;19;19928;-81
2022/04/11 06:03:01;;;;;;;;;;;11.10;52.40;;;;;;7384287;19;19911;-82
2022/04/11 06:05:30;;;;;;;;;;;11.10;52.50;;;;;;7380470;19;19926;-82
2022/04/11 06:07:59;;;;;;;;;;;11.10;52.30;;;;;;7382359;19;19959;-80
2022/04/11 06:10:28;;;;;;;;;;;11.10;52.30;;;;;;7382204;19;20514;-82
2022/04/11 06:12:59;;;;;;;;;;;11.20;52.40;;;;;;7384173;19;19928;-82
2022/04/11 06:15:28;;;;;;;;;;;11.20;52.20;;;;;;7404394;19;19919;-82
2022/04/11 06:17:57;;;;;;;;;;;11.20;52.10;;;;;;7384974;19;19926;-82
2022/04/11 06:20:26;;;;;;;;;;;11.20;51.90;;;;;;7378989;19;19930;-82
2022/04/11 06:22:55;;;;;;;;;;;11.30;52.10;;;;;;7381987;19;19922;-82
2022/04/11 06:25:23;;;;;;;;;;;11.30;52.00;;;;;;7381104;19;19976;-82
2022/04/11 06:27:52;;;;;;;;;;;11.40;51.90;;;;;;7382235;19;19915;-82
2022/04/11 06:30:23;;;;;;;;;;;11.40;51.70;;;;;;7401394;19;20238;-83
2022/04/11 06:32:54;;;;;;;;;;;11.40;51.60;;;;;;7383850;19;19926;-82
2022/04/11 06:35:23;;;;;;;;;;;11.50;51.50;;;;;;7382049;19;20358;-82
2022/04/11 06:37:52;;;;;;;;;;;11.50;51.30;;;;;;7381820;19;19922;-82
2022/04/11 06:40:20;;;;;;;;;;;11.50;51.40;;;;;;7379405;19;19943;-83
2022/04/11 06:42:49;;;;;;;;;;;11.50;51.40;;;;;;7403235;19;20341;-83
2022/04/11 06:45:18;;;;;;;;;;;11.60;51.30;;;;;;7378963;19;19939;-82
2022/04/11 06:47:49;;;;;;;;;;;11.60;51.20;;;;;;7380687;19;20242;-82
2022/04/11 06:50:18;;;;;;;;;;;11.60;51.30;;;;;;7381921;19;19926;-82
2022/04/11 06:52:46;;;;;;;;;;;11.70;51.20;;;;;;7383943;19;19915;-82
2022/04/11 06:55:15;;;;;;;;;;;11.70;51.00;;;;;;7389648;19;19935;-82
2022/04/11 06:57:43;;;;;;;;;;;11.80;51.00;;;;;;7408322;19;19922;-82
2022/04/11 07:00:12;;;;;;;;;;;11.80;51.10;;;;;;7388237;19;19915;-83
2022/04/11 07:02:41;;;;;;;;;;;11.70;50.50;;;;;;7386958;19;19932;-82
2022/04/11 07:05:13;;;;;;;;;;;11.80;50.90;;;;;;7384324;19;19926;-81
2022/04/11 07:07:41;;;;;;;;;;;11.80;51.00;;;;;;7380117;19;19923;-80
2022/04/11 07:10:11;;;;;;;;;;;11.80;51.00;;;;;;7383808;19;19915;-83
2022/04/11 07:12:40;;;;;;;;;;;11.80;51.10;;;;;;7406730;19;19951;-81
2022/04/11 07:15:09;;;;;;;;;;;11.90;51.40;;;;;;7381553;19;19919;-83
2022/04/11 07:17:38;;;;;;;;;;;11.90;51.70;;;;;;7379686;19;19925;-81
2022/04/11 07:20:08;;;;;;;;;;;11.90;51.20;;;;;;7379398;19;19935;-80
2022/04/11 07:22:39;;;;;;;;;;;11.90;51.60;;;;;;7379862;19;19915;-81
2022/04/11 07:25:08;;;;;;;;;;;12.00;52.30;;;;;;7380473;19;19951;-81
2022/04/11 07:27:36;;;;;;;;;;;12.00;52.40;;;;;;7401745;19;19922;-81
2022/04/11 07:30:05;;;;;;;;;;;12.10;52.00;;;;;;7380934;19;19931;-83
2022/04/11 07:32:34;;;;;;;;;;;12.20;52.10;;;;;;7382788;19;19923;-80
2022/04/11 07:35:02;;;;;;;;;;;12.20;51.90;;;;;;7383503;19;19991;-82
2022/04/11 07:37:33;;;;;;;;;;;12.30;51.80;;;;;;7379934;19;20029;-81
2022/04/11 07:40:04;;;;;;;;;;;12.30;51.90;;;;;;7381335;19;19914;-83
2022/04/11 07:42:33;;;;;;;;;;;12.40;52.10;;;;;;7420816;19;19943;-82
2022/04/11 07:45:01;;;;;;;;;;;12.40;51.60;;;;;;7410537;19;19947;-82
2022/04/11 07:47:29;;;;;;;;;;;12.50;51.80;;;;;;7408506;19;19914;-81
2022/04/11 07:49:58;;;;;;;;;;;12.60;51.60;;;;;;7407584;19;19911;-81
2022/04/11 07:52:26;;;;;;;;;;;12.60;51.20;;;;;;7401553;19;19911;-81
2022/04/11 07:54:55;;;;;;;;;;;12.60;50.50;;;;;;7383999;19;19986;-83
2022/04/11 07:57:27;;;;;;;;;;;12.70;50.50;;;;;;7406549;19;19925;-81
2022/04/11 07:59:55;;;;;;;;;;;12.60;50.10;;;;;;7383631;19;20019;-82
2022/04/11 08:02:27;;;;;;;;;;;12.60;50.20;;;;;;7383685;19;19942;-82
2022/04/11 08:04:56;;;;;;;;;;;12.70;50.60;;;;;;7380777;19;19926;-82
2022/04/11 08:07:25;;;;;;;;;;;12.70;50.40;;;;;;7382111;19;19947;-83
2022/04/11 08:09:53;;;;;;;;;;;12.80;50.40;;;;;;7381874;19;19930;-84
2022/04/11 08:12:22;;;;;;;;;;;12.80;50.40;;;;;;7403426;19;19947;-81
2022/04/11 08:14:53;;;;;;;;;;;12.80;50.20;;;;;;7381500;19;19986;-83
2022/04/11 08:17:22;;;;;;;;;;;12.90;51.10;;;;;;7381743;19;19911;-83
2022/04/11 08:19:50;;;;;;;;;;;12.90;50.80;;;;;;7382038;19;19919;-82
2022/04/11 08:22:18;;;;;;;;;;;12.90;50.50;;;;;;7378624;19;20016;-80
2022/04/11 08:24:47;;;;;;;;;;;13.00;50.50;;;;;;7400467;19;19950;-81
2022/04/11 08:27:16;;;;;;;;;;;13.00;50.60;;;;;;7384888;19;19914;-81
2022/04/11 08:29:44;;;;;;;;;;;13.00;50.30;;;;;;7384387;19;19939;-82
2022/04/11 08:32:17;;;;;;;;;;;13.10;50.30;;;;;;7390442;19;20021;-82
2022/04/11 08:34:48;;;;;;;;;;;13.00;50.00;;;;;;7395263;19;19918;-82
2022/04/11 08:37:17;;;;;;;;;;;13.10;50.10;;;;;;7390839;19;19923;-81
2022/04/11 08:39:49;;;;;;;;;;;13.20;50.20;;;;;;7410271;19;19919;-82
2022/04/11 08:42:18;;;;;;;;;;;13.20;50.00;;;;;;7384750;19;19923;-81
2022/04/11 08:44:47;;;;;;;;;;;13.20;49.90;;;;;;7384456;19;19923;-82
2022/04/11 08:47:18;;;;;;;;;;;13.30;49.80;;;;;;7385261;19;19923;-81
2022/04/11 08:49:46;;;;;;;;;;;13.30;49.90;;;;;;7383378;19;20354;-82
2022/04/11 08:52:16;;;;;;;;;;;13.30;49.90;;;;;;7381834;19;19928;-82
2022/04/11 08:54:46;;;;;;;;;;;13.30;50.00;;;;;;7403800;19;19950;-82
2022/04/11 08:57:14;;;;;;;;;;;13.40;49.80;;;;;;7380433;19;19938;-80
2022/04/11 08:59:49;;;;;;;;;;;13.40;49.70;;;;;;7380691;19;19914;-82
2022/04/11 09:02:20;;;;;;;;;;;13.50;49.90;;;;;;7380230;19;19932;-82
2022/04/11 09:04:50;;;;;;;;;;;13.50;49.90;;;;;;7379947;19;19919;-82
2022/04/11 09:07:19;;;;;;;;;;;13.50;50.20;;;;;;7379759;19;19918;-80
2022/04/11 09:09:47;;;;;;;;;;;13.60;50.00;;;;;;7403303;19;19922;-82
2022/04/11 09:12:16;;;;;;;;;;;13.70;49.50;;;;;;7381994;19;19926;-82
2022/04/11 09:14:45;;;;;;;;;;;13.70;49.00;;;;;;7381131;19;19939;-81
2022/04/11 09:17:14;;;;;;;;;;;13.70;49.00;;;;;;7380949;19;19930;-81
2022/04/11 09:19:45;;;;;;;;;;;13.70;49.50;;;;;;7375639;19;19919;-79
2022/04/11 09:22:14;;;;;;;;;;;13.70;49.40;;;;;;7377495;19;19925;-80
2022/04/11 09:24:43;;;;;;;;;;;13.80;49.20;;;;;;7399135;19;19923;-81
2022/04/11 09:27:11;;;;;;;;;;;13.80;49.40;;;;;;7374309;19;20337;-81
2022/04/11 09:29:45;;;;;;;;;;;13.90;49.70;;;;;;7376661;19;19922;-81
2022/04/11 09:32:13;;;;;;;;;;;13.90;49.90;;;;;;7377812;19;19923;-80
2022/04/11 09:34:41;;;;;;;;;;;14.00;50.00;;;;;;7376837;19;19990;-82
2022/04/11 09:37:13;;;;;;;;;;;14.10;49.70;;;;;;7377647;19;19959;-82
2022/04/11 09:39:44;;;;;;;;;;;14.10;49.60;;;;;;7396877;19;19930;-83
2022/04/11 09:42:12;;;;;;;;;;;14.10;49.10;;;;;;7374946;19;19915;-82
2022/04/11 09:44:41;;;;;;;;;;;14.20;49.40;;;;;;7374782;19;20438;-82
2022/04/11 09:47:09;;;;;;;;;;;14.10;49.60;;;;;;7376660;19;19931;-83
2022/04/11 09:49:39;;;;;;;;;;;14.20;49.70;;;;;;7375953;19;19936;-82
2022/04/11 09:52:14;;;;;;;;;;;14.10;49.40;;;;;;7379386;19;19926;-83
2022/04/11 09:54:47;;;;;;;;;;;14.20;48.90;;;;;;7419179;19;19911;-83
2022/04/11 09:57:17;;;;;;;;;;;14.20;48.80;;;;;;7388384;19;19922;-81
2022/04/11 09:59:47;;;;;;;;;;;14.30;49.20;;;;;;7404227;19;19906;-87
2022/04/11 10:02:17;;;;;;;;;;;14.30;49.80;;;;;;7410031;19;19931;-91
2022/04/11 10:04:46;;;;;;;;;;;14.40;50.10;;;;;;7413418;19;20040;-88
2022/04/11 10:07:18;;;;;;;;;;;14.40;49.90;;;;;;7401743;19;20002;-92
2022/04/11 10:09:46;;;;;;;;;;;14.40;49.30;;;;;;7426267;19;19917;-92
2022/04/11 10:12:15;;;;;;;;;;;14.40;49.40;;;;;;7409831;19;19919;-91
2022/04/11 10:14:47;;;;;;;;;;;14.40;49.10;;;;;;7412918;19;19923;-93
2022/04/11 10:17:16;;;;;;;;;;;14.50;49.20;;;;;;7403752;19;19914;-88
2022/04/11 10:19:48;;;;;;;;;;;14.60;49.10;;;;;;7411079;19;19944;-89
2022/04/11 10:22:20;;;;;;;;;;;14.70;48.60;;;;;;7401307;19;19915;-82
2022/04/11 10:24:51;;;;;;;;;;;14.80;46.90;;;;;;7408674;19;19943;-83
2022/04/11 10:27:22;;;;;;;;;;;14.80;47.60;;;;;;7382923;19;20242;-83
2022/04/11 10:29:51;;;;;;;;;;;14.80;47.20;;;;;;7383189;19;19931;-82
2022/04/11 10:32:21;;;;;;;;;;;14.90;47.70;;;;;;7383275;19;19922;-81
2022/04/11 10:34:55;;;;;;;;;;;15.00;48.00;;;;;;7376129;19;19949;-82
2022/04/11 10:37:27;;;;;;;;;;;15.10;47.10;;;;;;7377894;19;19982;-81
2022/04/11 10:43:20;;;;;;;;;;;15.20;46.80;;;;;;7377666;19;19923;-84
2022/04/11 10:45:59;;;;;;;;;;;15.20;47.00;;;;;;7409323;19;19919;-84
2022/04/11 10:48:44;;;;;;;;;;;15.20;46.30;;;;;;7410108;19;19914;-85
2022/04/11 10:51:17;;;;;;;;;;;15.20;46.00;;;;;;7405140;19;19915;-82
2022/04/11 10:54:00;;;;;;;;;;;15.20;46.30;;;;;;7389407;19;20307;-84
2022/04/11 10:56:52;;;;;;;;;;;15.20;46.30;;;;;;7385113;19;19919;-82
2022/04/11 10:59:27;;;;;;;;;;;15.20;46.30;;;;;;7382437;19;19998;-81
2022/04/11 11:02:00;;;;;;;;;;;15.30;46.20;;;;;;7380892;19;20221;-82
2022/04/11 11:04:32;;;;;;;;;;;15.30;46.20;;;;;;7382003;19;20669;-82
2022/04/11 11:07:15;;;;;;;;;;;15.30;46.30;;;;;;7378436;19;20244;-80
2022/04/11 11:09:44;;;;;;;;;;;15.40;46.30;;;;;;7402278;19;20026;-81
2022/04/11 11:12:25;;;;;;;;;;;15.40;46.20;;;;;;7378578;19;20009;-81
2022/04/11 11:14:54;;;;;;;;;;;15.40;46.80;;;;;;7376858;19;19929;-81
2022/04/11 11:17:22;;;;;;;;;;;15.50;46.10;;;;;;7379705;19;19917;-81
2022/04/11 11:20:07;;;;;;;;;;;15.70;45.90;;;;;;7379607;19;19959;-83
2022/04/11 11:22:37;;;;;;;;;;;15.70;45.50;;;;;;7378347;19;19935;-81
2022/04/11 11:25:23;;;;;;;;;;;15.80;46.10;;;;;;7379282;19;19927;-82
2022/04/11 11:27:54;;;;;;;;;;;15.80;45.40;;;;;;7381427;19;19957;-82
2022/04/11 11:30:23;;;;;;;;;;;15.90;45.90;;;;;;7397317;19;19952;-83
2022/04/11 11:32:51;;;;;;;;;;;15.90;45.20;;;;;;7377579;19;19994;-82
2022/04/11 11:35:20;;;;;;;;;;;15.90;45.40;;;;;;7377371;19;19974;-84
2022/04/11 11:37:49;;;;;;;;;;;15.90;45.60;;;;;;7378277;19;19925;-84
2022/04/11 11:40:21;;;;;;;;;;;16.00;46.10;;;;;;7381834;19;19935;-82
2022/04/11 11:42:49;;;;;;;;;;;16.10;46.30;;;;;;7406039;19;19919;-88
2022/04/11 11:45:28;;;;;;;;;;;16.20;45.70;;;;;;7388533;19;19915;-87
2022/04/11 11:47:56;;;;;;;;;;;16.30;45.20;;;;;;7382877;19;19932;-81
2022/04/11 11:50:25;;;;;;;;;;;16.30;45.40;;;;;;7377622;19;19930;-79
2022/04/11 11:53:00;;;;;;;;;;;16.40;45.70;;;;;;7374582;19;20002;-78
2022/04/11 11:55:28;;;;;;;;;;;16.40;46.10;;;;;;7382749;19;19932;-84
2022/04/11 11:58:05;;;;;;;;;;;16.50;45.70;;;;;;7381368;19;20284;-80
2022/04/11 12:00:38;;;;;;;;;;;16.60;45.30;;;;;;7411499;19;20292;-79
2022/04/11 12:05:59;;;;;;;;;;;16.80;45.70;;;;;;7394813;19;19946;-80
2022/04/11 12:08:30;;;;;;;;;;;16.90;45.40;;;;;;7376889;19;19923;-80
2022/04/11 12:11:00;;;;;;;;;;;17.00;45.40;;;;;;7375272;19;19922;-80
2022/04/11 12:13:29;;;;;;;;;;;17.10;45.10;;;;;;7377728;19;19919;-79
2022/04/11 12:16:10;;;;;;;;;;;17.10;44.80;;;;;;7376644;19;20500;-80
2022/04/11 12:18:49;;;;;;;;;;;17.20;45.00;;;;;;7397247;19;19919;-79
2022/04/11 12:21:17;;;;;;;;;;;17.30;45.20;;;;;;7372743;19;19931;-80
2022/04/11 12:23:47;;;;;;;;;;;17.40;45.20;;;;;;7371607;19;20001;-79
2022/04/11 12:26:26;;;;;;;;;;;17.40;45.00;;;;;;7374525;19;19914;-79
2022/04/11 12:28:54;;;;;;;;;;;17.50;44.90;;;;;;7375393;19;19918;-79
2022/04/11 12:31:25;;;;;;;;;;;17.60;44.90;;;;;;7376868;19;20432;-79
2022/04/11 12:33:54;;;;;;;;;;;17.70;45.00;;;;;;7376102;19;19935;-79
2022/04/11 12:36:26;;;;;;;;;;;17.80;44.70;;;;;;7396609;19;19934;-79
2022/04/11 12:38:55;;;;;;;;;;;17.80;44.60;;;;;;7375159;19;19922;-78
2022/04/11 12:41:31;;;;;;;;;;;17.80;44.50;;;;;;7376012;19;19931;-79
2022/04/11 12:44:07;;;;;;;;;;;17.80;44.60;;;;;;7373042;19;19964;-79
2022/04/11 12:46:38;;;;;;;;;;;17.80;45.00;;;;;;7373725;19;19922;-79
2022/04/11 12:49:07;;;;;;;;;;;17.90;44.30;;;;;;7372208;19;19918;-79
2022/04/11 12:51:36;;;;;;;;;;;17.90;44.20;;;;;;7394010;19;19923;-79
2022/04/11 12:54:07;;;;;;;;;;;18.00;43.90;;;;;;7372994;19;19919;-79
2022/04/11 12:56:39;;;;;;;;;;;18.10;44.50;;;;;;7371196;19;19923;-79
2022/04/11 12:59:08;;;;;;;;;;;18.30;44.50;;;;;;7374130;19;20292;-79
2022/04/11 13:01:52;;;;;;;;;;;18.50;44.60;;;;;;7373827;19;19911;-79
2022/04/11 13:04:23;;;;;;;;;;;18.60;43.80;;;;;;7373222;19;20312;-79
2022/04/11 13:06:52;;;;;;;;;;;18.80;43.40;;;;;;7385372;19;19981;-79
2022/04/11 13:09:21;;;;;;;;;;;18.90;43.10;;;;;;7393794;19;19919;-79
2022/04/11 13:11:50;;;;;;;;;;;19.00;43.10;;;;;;7372285;19;20744;-79
2022/04/11 13:14:20;;;;;;;;;;;19.10;42.40;;;;;;7372242;19;19925;-78
2022/04/11 13:19:32;;;;;;;;;;;19.10;41.10;;;;;;7372924;19;19929;-78
2022/04/11 13:22:01;;;;;;;;;;;19.10;41.50;;;;;;7370685;19;19929;-77
2022/04/11 13:24:30;;;;;;;;;;;19.10;41.50;;;;;;7395731;19;20310;-78
2022/04/11 13:26:58;;;;;;;;;;;19.20;41.70;;;;;;7371613;19;19923;-78
2022/04/11 13:29:28;;;;;;;;;;;19.20;41.10;;;;;;7373773;19;19933;-78
2022/04/11 13:31:57;;;;;;;;;;;19.30;40.90;;;;;;7373663;19;19993;-79
2022/04/11 13:34:25;;;;;;;;;;;19.30;40.20;;;;;;7375034;19;20359;-78
2022/04/11 13:36:57;;;;;;;;;;;19.20;40.40;;;;;;7377469;19;19926;-79
2022/04/11 13:39:25;;;;;;;;;;;19.30;40.50;;;;;;7401488;19;19947;-79
2022/04/11 13:41:54;;;;;;;;;;;19.40;40.60;;;;;;7379474;19;20339;-79
2022/04/11 13:44:23;;;;;;;;;;;19.40;40.40;;;;;;7382761;19;19932;-81
2022/04/11 13:46:53;;;;;;;;;;;19.50;40.20;;;;;;7379863;19;20383;-80
2022/04/11 13:49:22;;;;;;;;;;;19.50;40.20;;;;;;7379854;19;19927;-79
2022/04/11 13:51:51;;;;;;;;;;;19.70;40.70;;;;;;7403007;19;20217;-78
2022/04/11 13:54:22;;;;;;;;;;;19.70;39.90;;;;;;7398452;19;19923;-81
2022/04/11 13:56:50;;;;;;;;;;;19.80;40.00;;;;;;7377666;19;19931;-81
2022/04/11 13:59:20;;;;;;;;;;;19.80;40.40;;;;;;7379136;19;19982;-80
2022/04/11 14:01:49;;;;;;;;;;;19.90;39.50;;;;;;7379445;19;19915;-80
2022/04/11 14:04:20;;;;;;;;;;;19.90;39.90;;;;;;7374424;19;19921;-81
2022/04/11 14:06:49;;;;;;;;;;;19.90;39.20;;;;;;7398610;19;19926;-80
2022/04/11 14:09:17;;;;;;;;;;;20.00;39.50;;;;;;7378924;19;20288;-80
2022/04/11 14:11:48;;;;;;;;;;;20.10;39.90;;;;;;7377766;19;19978;-78
2022/04/11 14:14:17;;;;;;;;;;;20.10;39.70;;;;;;7380060;19;19918;-79
2022/04/11 14:16:45;;;;;;;;;;;20.10;40.00;;;;;;7378211;19;19919;-79
2022/04/11 14:19:14;;;;;;;;;;;20.20;40.10;;;;;;7377902;19;20702;-80
2022/04/11 14:21:42;;;;;;;;;;;20.30;40.00;;;;;;7401143;19;20268;-80
2022/04/11 14:24:11;;;;;;;;;;;20.30;39.60;;;;;;7379650;19;20053;-80
2022/04/11 14:26:39;;;;;;;;;;;20.30;39.70;;;;;;7379514;19;19986;-81
2022/04/11 14:29:11;;;;;;;;;;;20.40;39.50;;;;;;7377764;19;20340;-80
2022/04/11 14:31:41;;;;;;;;;;;20.40;39.70;;;;;;7379498;19;19922;-81
2022/04/11 14:34:09;;;;;;;;;;;20.40;40.10;;;;;;7379080;19;19926;-81
2022/04/11 14:36:38;;;;;;;;;;;20.40;39.70;;;;;;7402337;19;19922;-80
2022/04/11 14:39:06;;;;;;;;;;;20.40;39.80;;;;;;7378191;19;19939;-80
2022/04/11 14:41:34;;;;;;;;;;;20.40;40.20;;;;;;7378416;19;19939;-80